Weather observations for the past three days for
Manistee County - Blacker Airport
| Date | Time (edt) | Wind (mph) | Vis. (mi.) | Weather | Sky Cond. | Temperature (ºF) | Relative Humidity | Wind Chill (°F) | Heat Index (°F) | Pressure | Precipitation (in) | ||||||
|---|---|---|---|---|---|---|---|---|---|---|---|---|---|---|---|---|---|
| Air | Dwpt | 6 hour | altimeter (in) | sea level (mb) | 1 hr | 3 hr | 6 hr | ||||||||||
| Max. | Min. | ||||||||||||||||
| 10 | 15:56 | W 10 | 10.00 | Mostly Cloudy | FEW050 BKN065 BKN090 | 54 | 30 | 40% | 30.08 | 1019.2 | |||||||
| 10 | 14:56 | W 12 G 17 | 10.00 | Mostly Cloudy | SCT080 BKN100 | 55 | 27 | 34% | 30.07 | 1018.9 | |||||||
| 10 | 13:56 | W 10 G 20 | 10.00 | Fair | CLR | 53.1 | 27 | 54 | 34 | 37% | 30.06 | 1018.6 | |||||
| 10 | 12:56 | W 15 G 20 | 10.00 | Fair | CLR | 53.1 | 27 | 37% | 30.07 | 1018.7 | |||||||
| 10 | 11:56 | SW 12 | 10.00 | A Few Clouds | FEW110 | 52 | 28.9 | 41% | 30.06 | 1018.4 | |||||||
| 10 | 10:56 | W 14 | 10.00 | Overcast | OVC110 | 51.1 | 28.9 | 43% | 30.06 | 1018.1 | |||||||
| 10 | 09:56 | W 13 | 10.00 | Fair | CLR | 48.9 | 32 | 52% | 44 | 30.05 | 1017.7 | ||||||
| 10 | 08:56 | W 8 | 10.00 | Fair | CLR | 45 | 34 | 66% | 41 | 30.04 | 1017.5 | ||||||
| 10 | 07:56 | Calm | 10.00 | Fair | CLR | 34 | 33.1 | 34 | 26.1 | 97% | 30.02 | 1017.0 | |||||
| 10 | 06:56 | E 3 | 10.00 | Fair | CLR | 28.9 | 27 | 92% | 30 | 1016.4 | |||||||
| 10 | 05:56 | Calm | 10.00 | Partly Cloudy | SCT080 | 27 | 24.1 | 89% | 29.98 | 1015.7 | |||||||
| 10 | 04:56 | Calm | 10.00 | Fair | CLR | 27 | 24.1 | 89% | 29.95 | 1015.0 | |||||||
| 10 | 03:56 | Calm | 10.00 | Fair | CLR | 28 | 26.1 | 92% | 29.93 | 1014.2 | |||||||
| 10 | 02:56 | Calm | 10.00 | Fair | CLR | 30 | 28 | 92% | 29.92 | 1013.7 | |||||||
| 10 | 01:56 | Calm | 10.00 | Fair | CLR | 33.1 | 28.9 | 55 | 33.1 | 85% | 29.91 | 1013.4 | |||||
| 10 | 00:56 | Calm | 10.00 | Partly Cloudy | SCT100 | 35.1 | 28.9 | 78% | 29.9 | 1013.0 | |||||||
| 09 | 23:56 | Calm | 10.00 | Fair | CLR | 41 | 28 | 60% | 29.89 | 1012.5 | |||||||
| 09 | 22:56 | NE 8 | 10.00 | Fair | CLR | 45 | 28 | 52% | 41 | 29.86 | 1011.3 | ||||||
| 09 | 21:56 | NE 9 | 10.00 | Fair | CLR | 46.9 | 30 | 52% | 43 | 29.82 | 1009.9 | ||||||
| 09 | 20:56 | N 12 | 10.00 | Fair | CLR | 48.9 | 30 | 48% | 45 | 29.77 | 1008.4 | ||||||
| 09 | 19:56 | NW 16 G 21 | 10.00 | Fair | CLR | 55 | 28 | 57.9 | 53.1 | 36% | 29.73 | 1007.0 | |||||
| 09 | 18:56 | NW 8 | 10.00 | Fair | CLR | 55.9 | 30 | 37% | 29.7 | 1005.8 | |||||||
| 09 | 17:56 | NW 9 | 10.00 | A Few Clouds | FEW095 | 55 | 36 | 49% | 29.67 | 1005.2 | |||||||
| 09 | 16:56 | W 12 | 10.00 | Mostly Cloudy | BKN095 | 55 | 37 | 51% | 29.65 | 1004.3 | |||||||
| 09 | 15:56 | W 12 | 10.00 | Mostly Cloudy | FEW075 BKN100 | 55 | 35.1 | 47% | 29.63 | 1003.7 | |||||||
| 09 | 14:56 | W 10 | 10.00 | Overcast | OVC060 | 54 | 34 | 47% | 29.62 | 1003.3 | |||||||
| 09 | 12:56 | W 5 | 10.00 | Overcast | OVC075 | 51.1 | 36 | 56% | 29.6 | 1002.4 | |||||||
| 09 | 11:56 | SW 3 | 10.00 | Overcast | OVC070 | 51.1 | 37 | 59% | 29.59 | 1002.3 | |||||||
| 09 | 10:56 | NW 5 | 10.00 | Light Rain | BKN050 OVC060 | 51.1 | 36 | 56% | 29.59 | 1002.1 | |||||||
| 09 | 09:56 | NW 14 G 20 | 10.00 | Light Rain | SCT048 BKN060 OVC090 | 50 | 39 | 66% | 45 | 29.55 | 1000.8 | ||||||
| 09 | 08:56 | SW 8 G 17 | 10.00 | Fair | CLR | 54 | 42.1 | 64% | 29.51 | 999.5 | |||||||
| 09 | 07:56 | SW 7 | 10.00 | A Few Clouds | FEW100 | 52 | 46 | 55.9 | 43 | 80% | 29.5 | 999.0 | |||||
| 09 | 06:56 | Vrbl 3 | 10.00 | Partly Cloudy | SCT110 | 48.9 | 43 | 80% | 29.5 | 999.1 | |||||||
| 09 | 05:56 | E 3 | 10.00 | Partly Cloudy | SCT100 | 44.1 | 37.9 | 79% | 29.51 | 999.6 | |||||||
| 09 | 04:56 | E 6 | 10.00 | A Few Clouds | FEW110 | 48 | 37.9 | 68% | 46 | 29.54 | 1000.3 | ||||||
| 09 | 03:56 | E 3 | 10.00 | Light Rain | FEW070 SCT110 | 52 | 39 | 61% | 29.55 | 1000.7 | |||||||
| 09 | 02:56 | S 5 | 10.00 | Mostly Cloudy | BKN095 | 55 | 32 | 42% | 29.59 | 1002.1 | |||||||
| 09 | 01:56 | Vrbl 5 | 10.00 | Mostly Cloudy | BKN095 BKN110 | 54 | 26.1 | 60.1 | 52 | 34% | 29.61 | 1002.7 | |||||
| 09 | 00:56 | SE 3 | 10.00 | Mostly Cloudy | BKN100 BKN120 | 52 | 25 | 35% | 29.63 | 1003.3 | |||||||
| 08 | 23:56 | Calm | 10.00 | Overcast | OVC090 | 54 | 24.1 | 31% | 29.65 | 1004.3 | |||||||
| 08 | 22:56 | Vrbl 3 | 10.00 | Overcast | OVC090 | 55 | 26.1 | 33% | 29.67 | 1004.7 | |||||||
| 08 | 21:56 | S 5 | 10.00 | Mostly Cloudy | BKN100 | 55.9 | 24.1 | 29% | 29.67 | 1004.8 | |||||||
| 08 | 20:56 | Vrbl 7 | 10.00 | Fair | CLR | 57 | 24.1 | 28% | 29.67 | 1004.8 | |||||||
| 08 | 19:56 | S 9 G 17 | 10.00 | A Few Clouds | FEW100 | 60.1 | 25 | 62.1 | 59 | 26% | 29.67 | 1004.9 | |||||
| 08 | 18:56 | SW 8 | 10.00 | Mostly Cloudy | BKN100 | 61 | 26.1 | 26% | 29.68 | 1005.5 | |||||||
| 08 | 17:56 | S 12 G 21 | 10.00 | Mostly Cloudy | BKN100 | 62.1 | 26.1 | 25% | 29.69 | 1005.9 | |||||||
| 08 | 16:56 | SW 10 G 18 | 10.00 | Fair | CLR | 62.1 | 26.1 | 25% | 29.7 | 1006.1 | |||||||
| 08 | 15:56 | S 13 G 18 | 10.00 | Fair | CLR | 62.1 | 25 | 24% | 29.72 | 1006.8 | |||||||
| 08 | 14:56 | SW 14 G 20 | 10.00 | Fair | CLR | 60.1 | 26.1 | 27% | 29.74 | 1007.6 | |||||||
| 08 | 13:56 | SW 13 G 22 | 10.00 | Fair | CLR | 59 | 27 | 60.1 | 35.1 | 29% | 29.77 | 1008.6 | |||||
| 08 | 12:56 | SW 15 G 22 | 10.00 | Fair | CLR | 59 | 28 | 31% | 29.79 | 1009.1 | |||||||
| 08 | 11:56 | SW 16 G 22 | 10.00 | Fair | CLR | 57.9 | 26.1 | 29% | 29.8 | 1009.4 | |||||||
| 08 | 10:56 | SW 13 G 20 | 10.00 | Fair | CLR | 55.9 | 28.9 | 36% | 29.81 | 1009.6 | |||||||
| 08 | 09:56 | SW 10 G 18 | 10.00 | Fair | CLR | 53.1 | 32 | 45% | 29.81 | 1009.8 | |||||||
| 08 | 08:56 | SW 6 | 10.00 | Fair | CLR | 46.9 | 35.1 | 63% | 45 | 29.83 | 1010.4 | ||||||
| 08 | 07:56 | E 3 | 10.00 | Fair | CLR | 35.1 | 34 | 35.1 | 26.1 | 96% | 29.82 | 1010.5 | |||||
| 08 | 06:56 | E 3 | 10.00 | Fair | CLR | 27 | 26.1 | 96% | 29.82 | 1010.4 | |||||||
| 08 | 05:56 | E 5 | 10.00 | Fair | CLR | 27 | 26.1 | 96% | 22 | 29.82 | 1010.3 | ||||||
| 08 | 04:56 | NE 3 | 10.00 | A Few Clouds | FEW095 | 27 | 25 | 92% | 29.84 | 1010.9 | |||||||
| 08 | 03:56 | Calm | 10.00 | A Few Clouds | FEW100 | 28 | 26.1 | 92% | 29.85 | 1011.2 | |||||||
| 08 | 02:56 | Calm | 10.00 | Fair | CLR | 28 | 26.1 | 92% | 29.85 | 1011.5 | |||||||
| 08 | 01:56 | Calm | 10.00 | Fair | CLR | 30 | 28 | 45 | 30 | 92% | 29.87 | 1011.9 | |||||
| 08 | 00:56 | Calm | 10.00 | Fair | CLR | 32 | 30 | 92% | 29.87 | 1012.0 | |||||||
| 07 | 23:56 | Calm | 10.00 | Fair | CLR | 36 | 32 | 86% | 29.87 | 1011.9 | |||||||
| 07 | 22:56 | Calm | 10.00 | Partly Cloudy | SCT090 | 39 | 34 | 82% | 29.87 | 1012.0 | |||||||
| 07 | 21:56 | Calm | 10.00 | Overcast | OVC085 | 43 | 33.1 | 68% | 29.86 | 1011.8 | |||||||
| 07 | 20:56 | SW 5 | 10.00 | Mostly Cloudy | BKN085 | 43 | 32 | 65% | 41 | 29.85 | 1011.4 | ||||||
| 07 | 19:56 | NW 5 | 10.00 | Partly Cloudy | SCT085 | 45 | 30.9 | 50 | 45 | 58% | 43 | 29.85 | 1011.4 | ||||
| 07 | 18:56 | W 6 | 10.00 | Mostly Cloudy | BKN090 | 48 | 27 | 44% | 46 | 29.85 | 1011.5 | ||||||
| 07 | 17:56 | W 10 | 10.00 | Fair | CLR | 48.9 | 26.1 | 41% | 45 | 29.86 | 1011.7 | ||||||
| 07 | 16:56 | W 9 | 10.00 | Mostly Cloudy | BKN065 | 48 | 24.1 | 39% | 44 | 29.87 | 1012.0 | ||||||
| Date | Time (edt) | Wind (mph) | Vis. (mi.) | Weather | Sky Cond. | Air | Dwpt | Max. | Min. | Relative Humidity | Wind Chill (°F) | Heat Index (°F) | altimeter (in) | sea level (mb) | 1 hr | 3 hr | 6 hr |
| 6 hour | |||||||||||||||||
| Temperature (ºF) | Pressure | Precipitation (in) | |||||||||||||||